createdAt,value
2019-04-03T00:00:06.464Z,96.90
2019-04-03T00:02:34.367Z,96.80
2019-04-03T00:05:02.777Z,96.10
2019-04-03T00:07:31.406Z,94.50
2019-04-03T00:09:58.672Z,97.10
2019-04-03T00:12:25.934Z,98.90
2019-04-03T00:14:53.211Z,99.90
2019-04-03T00:17:20.455Z,99.90
2019-04-03T00:19:48.253Z,99.90
2019-04-03T00:22:15.922Z,99.90
2019-04-03T00:24:43.293Z,99.90
2019-04-03T00:27:10.692Z,99.90
2019-04-03T00:29:37.983Z,99.90
2019-04-03T00:32:05.258Z,99.90
2019-04-03T00:34:32.629Z,99.90
2019-04-03T00:36:59.982Z,99.90
2019-04-03T00:39:27.124Z,99.90
2019-04-03T00:41:55.075Z,99.90
2019-04-03T00:44:24.000Z,99.90
2019-04-03T00:46:51.661Z,99.90
2019-04-03T00:49:18.899Z,99.90
2019-04-03T00:51:46.046Z,99.90
2019-04-03T00:54:13.272Z,99.90
2019-04-03T00:56:40.569Z,99.90
2019-04-03T00:59:07.824Z,99.90
2019-04-03T01:01:34.983Z,99.90
2019-04-03T01:04:02.262Z,99.90
2019-04-03T01:06:29.547Z,99.90
2019-04-03T01:08:59.020Z,99.90
2019-04-03T01:11:25.844Z,99.90
2019-04-03T01:13:53.085Z,99.90
2019-04-03T01:16:20.426Z,99.90
2019-04-03T01:18:47.892Z,99.90
2019-04-03T01:21:15.218Z,99.90
2019-04-03T01:23:42.456Z,99.90
2019-04-03T01:26:10.307Z,99.90
2019-04-03T01:28:37.679Z,99.90
2019-04-03T01:31:04.923Z,99.90
2019-04-03T01:33:32.060Z,99.90
2019-04-03T01:35:59.445Z,99.90
2019-04-03T01:38:26.754Z,99.90
2019-04-03T01:40:54.010Z,99.90
2019-04-03T01:43:22.849Z,99.90
2019-04-03T01:45:50.309Z,99.90
2019-04-03T01:48:17.606Z,99.90
2019-04-03T01:50:44.726Z,99.90
2019-04-03T01:53:11.911Z,99.90
2019-04-03T01:55:39.146Z,99.90
2019-04-03T01:58:07.091Z,99.90
2019-04-03T02:00:34.335Z,99.90
2019-04-03T02:03:02.332Z,99.90
2019-04-03T02:05:29.731Z,99.90
2019-04-03T02:07:56.992Z,99.90
2019-04-03T02:10:25.737Z,99.90
2019-04-03T02:12:52.877Z,99.90
2019-04-03T02:15:21.593Z,99.40
2019-04-03T02:17:49.044Z,99.90
2019-04-03T02:20:16.716Z,99.90
2019-04-03T02:22:44.022Z,99.90
2019-04-03T02:25:11.176Z,99.10
2019-04-03T02:27:38.453Z,99.90
2019-04-03T02:30:06.371Z,99.90
2019-04-03T02:32:33.728Z,99.90
2019-04-03T02:35:01.017Z,99.90
2019-04-03T02:37:28.266Z,99.90
2019-04-03T02:39:58.969Z,99.90
2019-04-03T02:42:24.738Z,99.90
2019-04-03T02:44:52.180Z,99.90
2019-04-03T02:47:19.639Z,99.90
2019-04-03T02:49:46.986Z,99.90
2019-04-03T02:52:14.571Z,99.90
2019-04-03T02:54:42.914Z,99.90
2019-04-03T02:57:10.423Z,99.90
2019-04-03T02:59:37.780Z,99.90
2019-04-03T03:02:04.991Z,99.90
2019-04-03T03:04:32.164Z,99.90
2019-04-03T03:07:03.199Z,99.90
2019-04-03T03:09:30.020Z,99.90
2019-04-03T03:11:57.885Z,99.90
2019-04-03T03:14:25.735Z,99.90
2019-04-03T03:16:53.285Z,99.90
2019-04-03T03:19:22.219Z,99.90
2019-04-03T03:21:50.152Z,99.90
2019-04-03T03:24:17.724Z,99.90
2019-04-03T03:26:45.940Z,99.90
2019-04-03T03:29:17.697Z,99.90
2019-04-03T03:32:05.439Z,99.90
2019-04-03T03:34:11.598Z,99.90
2019-04-03T03:36:39.240Z,99.90
2019-04-03T03:39:10.714Z,99.90
2019-04-03T03:41:36.275Z,99.90
2019-04-03T03:44:04.133Z,99.90
2019-04-03T03:46:31.725Z,99.90
2019-04-03T03:48:59.120Z,99.90
2019-04-03T03:51:30.120Z,99.90
2019-04-03T03:53:55.910Z,99.90
2019-04-03T03:56:23.379Z,99.90
2019-04-03T03:58:50.836Z,99.90
2019-04-03T04:01:18.759Z,99.90
2019-04-03T04:03:46.367Z,99.90
2019-04-03T04:06:14.023Z,99.90
2019-04-03T04:08:44.163Z,99.90
2019-04-03T04:11:10.774Z,99.90
2019-04-03T04:13:38.357Z,99.90
2019-04-03T04:16:05.736Z,99.90
2019-04-03T04:18:32.979Z,99.90
2019-04-03T04:21:00.943Z,99.90
2019-04-03T04:23:28.393Z,99.90
2019-04-03T04:25:55.756Z,99.90
2019-04-03T04:28:23.215Z,99.90
2019-04-03T04:30:50.971Z,99.90
2019-04-03T04:33:18.734Z,99.90
2019-04-03T04:35:46.481Z,99.90
2019-04-03T04:38:13.775Z,99.90
2019-04-03T04:40:41.002Z,99.90
2019-04-03T04:43:08.631Z,99.90
2019-04-03T04:45:36.005Z,99.90
2019-04-03T04:48:03.476Z,99.90
2019-04-03T04:50:30.739Z,99.90
2019-04-03T04:52:58.683Z,99.90
2019-04-03T04:55:26.766Z,99.90
2019-04-03T04:57:54.027Z,99.90
2019-04-03T05:00:21.283Z,99.90
2019-04-03T05:02:48.879Z,99.90
2019-04-03T05:05:17.681Z,99.90
2019-04-03T05:07:44.919Z,99.90
2019-04-03T05:10:12.176Z,99.90
2019-04-03T05:12:44.193Z,99.90
2019-04-03T05:15:08.803Z,99.90
2019-04-03T05:17:35.942Z,99.90
2019-04-03T05:20:04.071Z,99.90
2019-04-03T05:22:31.436Z,99.90
2019-04-03T05:24:59.348Z,99.90
2019-04-03T05:27:27.344Z,99.90
2019-04-03T05:29:55.080Z,99.90
2019-04-03T05:32:22.584Z,99.90
2019-04-03T05:34:49.905Z,99.90
2019-04-03T05:37:18.061Z,99.90
2019-04-03T05:39:46.830Z,99.90
2019-04-03T05:42:14.094Z,99.90
2019-04-03T05:44:41.398Z,99.90
2019-04-03T05:47:08.678Z,99.90
2019-04-03T05:49:36.056Z,99.90
2019-04-03T05:52:05.178Z,99.90
2019-04-03T05:54:32.435Z,99.90
2019-04-03T05:56:59.939Z,99.90
2019-04-03T05:59:27.329Z,99.90
2019-04-03T06:01:54.632Z,99.90
2019-04-03T06:04:21.888Z,99.90
2019-04-03T06:06:49.130Z,99.90
2019-04-03T06:09:16.414Z,99.90
2019-04-03T06:11:43.913Z,99.90
2019-04-03T06:14:11.408Z,99.90
2019-04-03T06:16:38.691Z,99.90
2019-04-03T06:19:07.335Z,99.90
2019-04-03T06:21:34.971Z,99.90
2019-04-03T06:24:02.302Z,99.90
2019-04-03T06:26:29.635Z,99.90
2019-04-03T06:28:56.918Z,99.90
2019-04-03T06:31:24.334Z,99.90
2019-04-03T06:33:53.324Z,99.90
2019-04-03T06:36:20.565Z,99.90
2019-04-03T06:38:47.960Z,99.90
2019-04-03T06:41:15.392Z,99.90
2019-04-03T06:43:42.655Z,99.90
2019-04-03T06:46:09.815Z,99.90
2019-04-03T06:48:37.261Z,99.90
2019-04-03T06:51:04.624Z,99.90
2019-04-03T06:53:31.933Z,99.90
2019-04-03T06:55:59.369Z,99.90
2019-04-03T06:58:36.873Z,99.90
2019-04-03T07:00:55.854Z,99.90
2019-04-03T07:03:23.193Z,99.90
2019-04-03T07:05:50.571Z,99.90
2019-04-03T07:08:28.658Z,99.90
2019-04-03T07:10:55.053Z,99.90
2019-04-03T07:13:16.096Z,99.90
2019-04-03T07:15:43.465Z,99.90
2019-04-03T07:18:10.728Z,99.90
2019-04-03T07:20:38.009Z,99.90
2019-04-03T07:23:05.278Z,99.90
2019-04-03T07:25:33.953Z,99.90
2019-04-03T07:28:01.791Z,99.90
2019-04-03T07:30:28.951Z,99.90
2019-04-03T07:32:57.923Z,99.90
2019-04-03T07:35:25.360Z,99.90
2019-04-03T07:37:52.726Z,99.90
2019-04-03T07:40:20.720Z,99.90
2019-04-03T07:42:48.741Z,97.50
2019-04-03T07:45:16.421Z,97.10
2019-04-03T07:47:43.659Z,94.20
2019-04-03T07:50:11.746Z,90.50
2019-04-03T07:52:39.170Z,90.30
2019-04-03T07:55:06.696Z,90.70
2019-04-03T07:57:34.438Z,87.90
2019-04-03T08:00:02.150Z,84.40
2019-04-03T08:02:29.480Z,84.50
2019-04-03T08:04:59.358Z,88.70
2019-04-03T08:07:25.811Z,83.90
2019-04-03T08:09:53.071Z,79.80
2019-04-03T08:12:20.359Z,76.70
2019-04-03T08:14:47.641Z,81.50
2019-04-03T08:17:14.894Z,77.40
2019-04-03T08:19:44.928Z,77.40
2019-04-03T08:22:11.548Z,78.80
2019-04-03T08:24:39.711Z,74.50
2019-04-03T08:27:08.125Z,72.90
2019-04-03T08:29:38.210Z,70.70
2019-04-03T08:32:05.087Z,68.00
2019-04-03T08:34:32.432Z,66.50
2019-04-03T08:37:01.544Z,70.30
2019-04-03T08:39:29.465Z,70.60
2019-04-03T08:41:57.272Z,68.00
2019-04-03T08:44:24.683Z,65.50
2019-04-03T08:46:51.976Z,66.60
2019-04-03T08:49:19.291Z,64.80
2019-04-03T08:51:46.707Z,61.30
2019-04-03T08:54:13.970Z,60.20
2019-04-03T08:56:41.128Z,59.50
2019-04-03T08:59:08.421Z,58.20
2019-04-03T09:01:37.035Z,58.40
2019-04-03T09:04:04.668Z,58.10
2019-04-03T09:06:31.920Z,57.50
2019-04-03T09:09:00.183Z,57.10
2019-04-03T09:11:27.329Z,58.20
2019-04-03T09:13:55.682Z,57.00
2019-04-03T09:16:23.417Z,58.00
2019-04-03T09:18:50.681Z,58.10
2019-04-03T09:21:17.950Z,58.00
2019-04-03T09:23:45.474Z,57.50
2019-04-03T09:26:13.081Z,58.30
2019-04-03T09:28:41.945Z,59.70
2019-04-03T09:31:09.557Z,61.30
2019-04-03T09:33:36.791Z,60.50
2019-04-03T09:36:04.531Z,58.10
2019-04-03T09:38:31.939Z,57.20
2019-04-03T09:40:59.267Z,56.90
2019-04-03T09:43:26.490Z,55.60
2019-04-03T09:45:54.146Z,54.70
2019-04-03T09:48:21.297Z,54.90
2019-04-03T09:50:48.773Z,54.20
2019-04-03T09:53:16.050Z,56.40
2019-04-03T09:55:43.450Z,58.50
2019-04-03T09:58:10.757Z,56.10
2019-04-03T10:00:39.653Z,55.10
2019-04-03T10:03:07.367Z,55.50
2019-04-03T10:05:35.015Z,55.10
2019-04-03T10:08:02.588Z,54.20
2019-04-03T10:10:29.847Z,54.50
2019-04-03T10:12:57.141Z,54.60
2019-04-03T10:15:24.568Z,54.90
2019-04-03T10:17:51.951Z,55.50
2019-04-03T10:20:19.170Z,54.70
2019-04-03T10:22:46.281Z,55.10
2019-04-03T10:25:13.661Z,54.50
2019-04-03T10:27:43.489Z,55.10
2019-04-03T10:30:11.343Z,54.30
2019-04-03T10:32:38.717Z,53.60
2019-04-03T10:35:07.316Z,52.00
2019-04-03T10:37:35.566Z,52.70
2019-04-03T10:40:04.278Z,51.80
2019-04-03T10:42:31.856Z,52.70
2019-04-03T10:44:59.220Z,51.70
2019-04-03T10:47:39.385Z,50.90
2019-04-03T10:49:55.552Z,50.60
2019-04-03T10:52:22.780Z,51.10
2019-04-03T10:54:50.406Z,50.20
2019-04-03T10:57:17.685Z,49.40
2019-04-03T10:59:44.971Z,48.10
2019-04-03T11:02:12.396Z,48.70
2019-04-03T11:04:39.596Z,48.00
2019-04-03T11:07:06.841Z,48.20
2019-04-03T11:09:34.370Z,50.30
2019-04-03T11:12:03.034Z,47.80
2019-04-03T11:14:30.263Z,45.70
2019-04-03T11:16:57.497Z,46.70
2019-04-03T11:19:24.879Z,47.50
2019-04-03T11:21:52.137Z,47.40
2019-04-03T11:24:19.372Z,44.30
2019-04-03T11:26:46.604Z,46.50
2019-04-03T11:29:14.820Z,46.00
2019-04-03T11:31:43.136Z,45.80
2019-04-03T11:34:10.682Z,46.60
2019-04-03T11:36:38.216Z,46.20
2019-04-03T11:39:13.542Z,46.90
2019-04-03T11:41:36.666Z,47.60
2019-04-03T11:44:04.047Z,46.20
2019-04-03T11:46:31.274Z,49.00
2019-04-03T11:48:58.740Z,49.40
2019-04-03T11:51:28.908Z,48.30
2019-04-03T11:53:54.886Z,48.20
2019-04-03T11:56:22.162Z,48.50
2019-04-03T11:58:51.347Z,48.00
2019-04-03T12:01:18.680Z,46.70
2019-04-03T12:03:46.286Z,47.60
2019-04-03T12:06:15.686Z,47.00
2019-04-03T12:08:45.017Z,46.10
2019-04-03T12:11:11.798Z,47.10
2019-04-03T12:13:39.036Z,47.00
2019-04-03T12:16:06.332Z,47.10
2019-04-03T12:18:34.311Z,46.20
2019-04-03T12:21:01.975Z,46.10
2019-04-03T12:23:29.294Z,46.50
2019-04-03T12:25:56.965Z,45.40
2019-04-03T12:28:24.162Z,46.30
2019-04-03T12:30:51.293Z,46.90
2019-04-03T12:33:20.186Z,47.10
2019-04-03T12:35:47.617Z,48.70
2019-04-03T12:38:14.982Z,47.10
2019-04-03T12:40:42.291Z,45.60
2019-04-03T12:43:09.784Z,46.20
2019-04-03T12:45:37.109Z,48.10
2019-04-03T12:48:04.362Z,48.90
2019-04-03T12:50:31.648Z,47.30
2019-04-03T12:52:58.890Z,47.20
2019-04-03T12:55:26.825Z,47.00
2019-04-03T12:57:54.235Z,47.30
2019-04-03T13:00:21.633Z,46.90
2019-04-03T13:02:50.058Z,45.80
2019-04-03T13:05:18.003Z,46.00
2019-04-03T13:07:47.218Z,46.40
2019-04-03T13:10:14.942Z,46.10
2019-04-03T13:12:42.442Z,47.00
2019-04-03T13:15:10.362Z,46.20
2019-04-03T13:17:38.232Z,46.00
2019-04-03T13:20:06.778Z,46.80
2019-04-03T13:22:34.344Z,47.50
2019-04-03T13:25:01.865Z,47.10
2019-04-03T13:27:31.792Z,47.40
2019-04-03T13:29:58.392Z,47.40
2019-04-03T13:32:25.778Z,47.80
2019-04-03T13:34:52.939Z,48.00
2019-04-03T13:37:22.158Z,47.70
2019-04-03T13:39:49.390Z,47.90
2019-04-03T13:42:16.730Z,48.00
2019-04-03T13:44:44.015Z,47.70
2019-04-03T13:47:11.923Z,48.50
2019-04-03T13:49:39.117Z,47.40
2019-04-03T13:52:08.992Z,47.90
2019-04-03T13:54:35.717Z,47.60
2019-04-03T13:57:03.165Z,47.70
2019-04-03T13:59:30.427Z,48.50
2019-04-03T14:01:57.571Z,48.50
2019-04-03T14:04:24.928Z,48.40
2019-04-03T14:06:52.091Z,48.00
2019-04-03T14:09:19.583Z,48.30
2019-04-03T14:11:46.900Z,49.30
2019-04-03T14:14:15.719Z,48.90
2019-04-03T14:16:43.257Z,48.90
2019-04-03T14:19:13.042Z,48.10
2019-04-03T14:21:39.557Z,48.40
2019-04-03T14:24:08.317Z,48.10
2019-04-03T14:26:35.975Z,47.20
2019-04-03T14:29:04.262Z,47.00
2019-04-03T14:31:35.523Z,47.10
2019-04-03T14:34:01.401Z,47.70
2019-04-03T14:36:28.973Z,47.90
2019-04-03T14:38:56.340Z,47.90
2019-04-03T14:41:23.578Z,48.60
2019-04-03T14:43:50.865Z,49.00
2019-04-03T14:46:19.000Z,48.70
2019-04-03T14:48:46.448Z,48.90
2019-04-03T14:51:13.834Z,49.30
2019-04-03T14:53:41.250Z,49.40
2019-04-03T14:56:08.578Z,48.80
2019-04-03T14:58:36.143Z,49.20
2019-04-03T15:01:03.498Z,49.10
2019-04-03T15:03:30.685Z,49.40
2019-04-03T15:05:58.093Z,49.70
2019-04-03T15:08:25.554Z,49.30
2019-04-03T15:10:53.584Z,49.60
2019-04-03T15:13:21.055Z,49.40
2019-04-03T15:15:48.703Z,49.90
2019-04-03T15:18:16.610Z,49.70
2019-04-03T15:20:43.749Z,49.70
2019-04-03T15:23:10.968Z,49.30
2019-04-03T15:25:38.496Z,49.30
2019-04-03T15:28:06.070Z,49.80
2019-04-03T15:30:33.372Z,49.80
2019-04-03T15:33:02.418Z,49.90
2019-04-03T15:35:32.131Z,49.70
2019-04-03T15:37:59.259Z,50.40
2019-04-03T15:40:27.049Z,50.10
2019-04-03T15:42:55.186Z,50.40
2019-04-03T15:45:24.928Z,50.30
2019-04-03T15:47:54.094Z,50.20
2019-04-03T15:50:20.765Z,50.30
2019-04-03T15:52:49.390Z,50.70
2019-04-03T15:55:17.720Z,51.10
2019-04-03T15:57:45.570Z,51.50
2019-04-03T16:00:13.886Z,50.90
2019-04-03T16:02:44.344Z,50.80
2019-04-03T16:05:10.717Z,50.90
2019-04-03T16:07:41.547Z,51.20
2019-04-03T16:10:07.450Z,50.90
2019-04-03T16:12:35.801Z,51.30
2019-04-03T16:15:05.235Z,51.40
2019-04-03T16:17:33.968Z,52.10
2019-04-03T16:20:01.640Z,51.80
2019-04-03T16:22:29.677Z,51.80
2019-04-03T16:24:57.946Z,51.90
2019-04-03T16:27:27.679Z,52.10
2019-04-03T16:29:54.315Z,52.10
2019-04-03T16:32:21.794Z,52.00
2019-04-03T16:34:49.624Z,52.00
2019-04-03T16:37:16.804Z,52.00
2019-04-03T16:39:44.416Z,52.30
2019-04-03T16:42:17.921Z,52.10
2019-04-03T16:44:45.725Z,52.20
2019-04-03T16:47:14.424Z,52.30
2019-04-03T16:49:41.912Z,52.70
2019-04-03T16:52:09.669Z,52.50
2019-04-03T16:54:37.106Z,52.90
2019-04-03T16:57:04.716Z,52.80
2019-04-03T16:59:35.458Z,53.00
2019-04-03T17:02:01.864Z,52.90
2019-04-03T17:04:29.671Z,53.00
2019-04-03T17:06:57.000Z,53.20
2019-04-03T17:09:24.356Z,53.10
2019-04-03T17:11:51.588Z,52.90
2019-04-03T17:14:18.856Z,53.40
2019-04-03T17:16:46.963Z,53.30
2019-04-03T17:19:15.813Z,53.60
2019-04-03T17:21:43.836Z,53.50
2019-04-03T17:24:11.226Z,53.60
2019-04-03T17:26:48.992Z,54.10
2019-04-03T17:29:08.335Z,54.20
2019-04-03T17:31:35.620Z,54.40
2019-04-03T17:34:06.028Z,54.80
2019-04-03T17:36:32.869Z,54.70
2019-04-03T17:39:04.896Z,54.70
2019-04-03T17:41:31.544Z,55.00
2019-04-03T17:43:58.750Z,55.20
2019-04-03T17:46:26.127Z,55.20
2019-04-03T17:48:55.273Z,55.30
2019-04-03T17:51:22.556Z,55.40
2019-04-03T17:53:49.845Z,55.30
2019-04-03T17:56:17.185Z,55.60
2019-04-03T17:58:47.623Z,55.60
2019-04-03T18:01:13.682Z,56.10
2019-04-03T18:03:40.871Z,55.60
2019-04-03T18:06:08.153Z,56.10
2019-04-03T18:08:35.292Z,56.80
2019-04-03T18:11:02.591Z,56.30
2019-04-03T18:13:29.833Z,56.40
2019-04-03T18:15:58.899Z,56.30
2019-04-03T18:18:26.288Z,56.20
2019-04-03T18:20:53.453Z,56.60
2019-04-03T18:23:21.700Z,56.70
2019-04-03T18:25:49.568Z,56.50
2019-04-03T18:28:16.907Z,57.00
2019-04-03T18:30:44.150Z,56.70
2019-04-03T18:33:11.292Z,56.80
2019-04-03T18:35:38.569Z,56.90
2019-04-03T18:38:07.912Z,56.80
2019-04-03T18:40:34.973Z,57.00
2019-04-03T18:43:02.212Z,57.10
2019-04-03T18:45:29.450Z,57.40
2019-04-03T18:47:56.713Z,57.60
2019-04-03T18:50:24.026Z,57.50
2019-04-03T18:52:51.303Z,57.80
2019-04-03T18:55:18.599Z,57.60
2019-04-03T18:57:45.737Z,57.90
2019-04-03T19:00:13.478Z,58.30
2019-04-03T19:02:40.753Z,58.20
2019-04-03T19:05:10.134Z,58.50
2019-04-03T19:07:37.283Z,58.40
2019-04-03T19:10:07.315Z,58.50
2019-04-03T19:12:36.076Z,58.80
2019-04-03T19:15:04.041Z,58.60
2019-04-03T19:17:31.411Z,58.80
2019-04-03T19:20:09.737Z,59.10
2019-04-03T19:22:27.875Z,59.60
2019-04-03T19:24:55.146Z,58.80
2019-04-03T19:27:22.437Z,59.40
2019-04-03T19:29:49.729Z,59.20
2019-04-03T19:32:17.031Z,59.10
2019-04-03T19:34:44.511Z,59.10
2019-04-03T19:37:12.300Z,59.40
2019-04-03T19:39:39.623Z,59.20
2019-04-03T19:42:06.858Z,59.60
2019-04-03T19:44:34.135Z,59.50
2019-04-03T19:47:01.442Z,59.40
2019-04-03T19:49:28.835Z,59.60
2019-04-03T19:51:56.169Z,60.00
2019-04-03T19:54:23.504Z,60.00
2019-04-03T19:56:50.656Z,60.00
2019-04-03T19:59:17.835Z,60.40
2019-04-03T20:01:45.094Z,60.70
2019-04-03T20:04:15.691Z,60.70
2019-04-03T20:06:41.603Z,61.10
2019-04-03T20:09:09.063Z,61.10
2019-04-03T20:11:36.534Z,61.30
2019-04-03T20:14:04.074Z,61.60
2019-04-03T20:16:31.610Z,62.10
2019-04-03T20:18:58.858Z,62.70
2019-04-03T20:21:27.065Z,64.70
2019-04-03T20:23:54.406Z,70.60
2019-04-03T20:26:21.631Z,87.10
2019-04-03T20:28:48.902Z,98.90
2019-04-03T20:31:16.086Z,99.90
2019-04-03T20:33:43.489Z,99.90
2019-04-03T20:36:10.760Z,99.90
2019-04-03T20:38:37.955Z,99.90
2019-04-03T20:41:05.272Z,99.90
2019-04-03T20:43:32.705Z,99.90
2019-04-03T20:46:00.087Z,99.90
2019-04-03T20:48:28.294Z,99.90
2019-04-03T20:50:56.301Z,99.90
2019-04-03T20:53:23.802Z,99.90
2019-04-03T20:55:51.000Z,99.90
2019-04-03T20:58:18.246Z,99.90
2019-04-03T21:00:49.395Z,99.90
2019-04-03T21:03:14.579Z,99.90
2019-04-03T21:05:41.974Z,99.90
2019-04-03T21:08:09.239Z,99.90
2019-04-03T21:10:36.490Z,99.90
2019-04-03T21:13:03.827Z,99.90
2019-04-03T21:15:31.104Z,99.90
2019-04-03T21:17:58.268Z,99.90
2019-04-03T21:20:25.494Z,99.90
2019-04-03T21:22:52.754Z,99.90
2019-04-03T21:25:20.049Z,99.90
2019-04-03T21:27:47.330Z,99.90
2019-04-03T21:30:14.766Z,99.90
2019-04-03T21:32:41.984Z,99.90
2019-04-03T21:35:09.528Z,99.90
2019-04-03T21:37:39.715Z,99.90
2019-04-03T21:40:05.937Z,99.90
2019-04-03T21:42:33.073Z,99.90
2019-04-03T21:45:02.552Z,99.90
2019-04-03T21:47:29.467Z,99.90
2019-04-03T21:49:56.685Z,99.90
2019-04-03T21:52:23.880Z,99.90
2019-04-03T21:54:51.105Z,99.90
2019-04-03T21:57:18.242Z,99.90
2019-04-03T21:59:45.410Z,99.90
2019-04-03T22:02:14.033Z,99.90
2019-04-03T22:04:41.897Z,99.90
2019-04-03T22:07:09.224Z,99.90
2019-04-03T22:09:36.528Z,99.90
2019-04-03T22:12:05.995Z,99.90
2019-04-03T22:14:32.981Z,99.90
2019-04-03T22:17:00.155Z,99.90
2019-04-03T22:19:28.175Z,99.90
2019-04-03T22:21:55.550Z,99.90
2019-04-03T22:24:22.831Z,99.90
2019-04-03T22:26:49.975Z,99.90
2019-04-03T22:29:19.777Z,99.90
2019-04-03T22:31:46.263Z,99.90
2019-04-03T22:34:13.483Z,99.90
2019-04-03T22:36:40.750Z,99.90
2019-04-03T22:39:08.778Z,99.90
2019-04-03T22:41:36.146Z,99.90
2019-04-03T22:44:03.588Z,99.90
2019-04-03T22:46:30.745Z,99.90
2019-04-03T22:48:58.084Z,99.90
2019-04-03T22:51:27.112Z,99.90
2019-04-03T22:53:54.363Z,99.90
2019-04-03T22:56:21.638Z,99.90
2019-04-03T22:58:48.913Z,99.90
2019-04-03T23:01:16.247Z,99.90
2019-04-03T23:03:43.493Z,99.90
2019-04-03T23:06:10.781Z,99.90
2019-04-03T23:08:38.037Z,99.90
2019-04-03T23:11:05.285Z,99.90
2019-04-03T23:13:33.789Z,99.90
2019-04-03T23:16:01.796Z,99.90
2019-04-03T23:18:28.969Z,99.90
2019-04-03T23:20:56.261Z,99.90
2019-04-03T23:23:27.061Z,99.90
2019-04-03T23:25:52.687Z,99.90
2019-04-03T23:28:19.956Z,99.90
2019-04-03T23:30:47.274Z,99.90
2019-04-03T23:33:16.604Z,99.90
2019-04-03T23:35:43.692Z,99.90
2019-04-03T23:38:10.965Z,99.90
2019-04-03T23:40:38.220Z,99.90
2019-04-03T23:43:08.659Z,99.90
2019-04-03T23:45:34.687Z,99.90
2019-04-03T23:48:01.990Z,99.90
2019-04-03T23:50:29.268Z,99.90
2019-04-03T23:52:56.539Z,99.90
2019-04-03T23:55:23.875Z,99.90
2019-04-03T23:57:51.202Z,99.90
